sensor_id;sensor_type;location;lat;lon;timestamp;P1;durP1;ratioP1;P2;durP2;ratioP2
60068;SDS011;45945;53.350;55.922;2023-06-04T00:00:07;12.60;;;7.82;;
60068;SDS011;45945;53.350;55.922;2023-06-04T00:01:10;12.05;;;8.32;;
60068;SDS011;45945;53.350;55.922;2023-06-04T00:02:13;12.77;;;7.65;;
60068;SDS011;45945;53.350;55.922;2023-06-04T00:03:14;12.57;;;8.48;;
60068;SDS011;45945;53.350;55.922;2023-06-04T00:04:15;14.07;;;8.20;;
60068;SDS011;45945;53.350;55.922;2023-06-04T00:05:16;13.20;;;8.43;;
60068;SDS011;45945;53.350;55.922;2023-06-04T00:06:17;13.38;;;7.78;;
60068;SDS011;45945;53.350;55.922;2023-06-04T00:07:18;13.65;;;8.65;;
60068;SDS011;45945;53.350;55.922;2023-06-04T00:08:19;12.40;;;8.07;;
60068;SDS011;45945;53.350;55.922;2023-06-04T00:09:20;13.20;;;8.30;;
60068;SDS011;45945;53.350;55.922;2023-06-04T00:10:21;12.70;;;8.20;;
60068;SDS011;45945;53.350;55.922;2023-06-04T00:11:22;12.80;;;8.02;;
60068;SDS011;45945;53.350;55.922;2023-06-04T00:12:23;11.30;;;8.10;;
60068;SDS011;45945;53.350;55.922;2023-06-04T00:13:24;12.93;;;7.53;;
60068;SDS011;45945;53.350;55.922;2023-06-04T00:14:25;11.20;;;7.97;;
60068;SDS011;45945;53.350;55.922;2023-06-04T00:15:25;12.68;;;7.90;;
60068;SDS011;45945;53.350;55.922;2023-06-04T00:16:26;12.45;;;8.18;;
60068;SDS011;45945;53.350;55.922;2023-06-04T00:17:27;11.80;;;8.40;;
60068;SDS011;45945;53.350;55.922;2023-06-04T00:18:28;12.15;;;8.25;;
60068;SDS011;45945;53.350;55.922;2023-06-04T00:19:29;12.80;;;8.88;;
60068;SDS011;45945;53.350;55.922;2023-06-04T00:20:30;13.23;;;8.68;;
60068;SDS011;45945;53.350;55.922;2023-06-04T00:21:31;11.20;;;8.43;;
60068;SDS011;45945;53.350;55.922;2023-06-04T00:22:31;12.95;;;8.63;;
60068;SDS011;45945;53.350;55.922;2023-06-04T00:23:32;11.32;;;8.02;;
60068;SDS011;45945;53.350;55.922;2023-06-04T00:24:33;14.48;;;8.90;;
60068;SDS011;45945;53.350;55.922;2023-06-04T00:25:34;12.13;;;8.88;;
60068;SDS011;45945;53.350;55.922;2023-06-04T00:26:36;14.55;;;8.88;;
60068;SDS011;45945;53.350;55.922;2023-06-04T00:27:37;14.32;;;8.35;;
60068;SDS011;45945;53.350;55.922;2023-06-04T00:28:38;13.60;;;7.68;;
60068;SDS011;45945;53.350;55.922;2023-06-04T00:29:39;12.48;;;8.55;;
60068;SDS011;45945;53.350;55.922;2023-06-04T00:30:40;11.32;;;8.15;;
60068;SDS011;45945;53.350;55.922;2023-06-04T00:31:44;13.60;;;8.20;;
60068;SDS011;45945;53.350;55.922;2023-06-04T00:32:44;13.98;;;8.10;;
60068;SDS011;45945;53.350;55.922;2023-06-04T00:33:47;13.80;;;9.00;;
60068;SDS011;45945;53.350;55.922;2023-06-04T00:34:52;12.27;;;8.43;;
60068;SDS011;45945;53.350;55.922;2023-06-04T00:35:53;12.93;;;8.77;;
60068;SDS011;45945;53.350;55.922;2023-06-04T00:36:54;12.68;;;8.82;;
60068;SDS011;45945;53.350;55.922;2023-06-04T00:37:55;12.23;;;8.05;;
60068;SDS011;45945;53.350;55.922;2023-06-04T00:38:56;15.07;;;8.45;;
60068;SDS011;45945;53.350;55.922;2023-06-04T00:39:56;14.48;;;8.32;;
60068;SDS011;45945;53.350;55.922;2023-06-04T00:40:57;13.32;;;8.13;;
60068;SDS011;45945;53.350;55.922;2023-06-04T00:41:58;11.48;;;8.02;;
60068;SDS011;45945;53.350;55.922;2023-06-04T00:42:59;14.60;;;7.93;;
60068;SDS011;45945;53.350;55.922;2023-06-04T00:44:00;14.35;;;8.15;;
60068;SDS011;45945;53.350;55.922;2023-06-04T00:45:02;11.98;;;8.95;;
60068;SDS011;45945;53.350;55.922;2023-06-04T00:46:06;13.73;;;9.10;;
60068;SDS011;45945;53.350;55.922;2023-06-04T00:47:07;12.38;;;8.55;;
60068;SDS011;45945;53.350;55.922;2023-06-04T00:48:08;13.02;;;8.35;;
60068;SDS011;45945;53.350;55.922;2023-06-04T00:49:09;12.68;;;8.35;;
60068;SDS011;45945;53.350;55.922;2023-06-04T00:50:13;11.52;;;8.23;;
60068;SDS011;45945;53.350;55.922;2023-06-04T00:51:14;12.35;;;8.18;;
60068;SDS011;45945;53.350;55.922;2023-06-04T00:52:15;12.57;;;8.15;;
60068;SDS011;45945;53.350;55.922;2023-06-04T00:53:16;12.63;;;8.70;;
60068;SDS011;45945;53.350;55.922;2023-06-04T00:54:17;12.90;;;8.05;;
60068;SDS011;45945;53.350;55.922;2023-06-04T00:55:20;11.88;;;8.00;;
60068;SDS011;45945;53.350;55.922;2023-06-04T00:56:21;12.45;;;9.02;;
60068;SDS011;45945;53.350;55.922;2023-06-04T00:57:22;12.38;;;8.45;;
60068;SDS011;45945;53.350;55.922;2023-06-04T00:58:23;15.63;;;9.43;;
60068;SDS011;45945;53.350;55.922;2023-06-04T00:59:25;13.68;;;8.80;;
60068;SDS011;45945;53.350;55.922;2023-06-04T01:00:26;12.80;;;8.85;;
60068;SDS011;45945;53.350;55.922;2023-06-04T01:01:37;12.20;;;8.30;;
60068;SDS011;45945;53.350;55.922;2023-06-04T01:02:41;13.48;;;8.70;;
60068;SDS011;45945;53.350;55.922;2023-06-04T01:03:45;12.35;;;8.43;;
60068;SDS011;45945;53.350;55.922;2023-06-04T01:06:04;12.95;;;8.13;;
60068;SDS011;45945;53.350;55.922;2023-06-04T01:07:09;13.73;;;8.25;;
60068;SDS011;45945;53.350;55.922;2023-06-04T01:08:13;13.60;;;7.93;;
60068;SDS011;45945;53.350;55.922;2023-06-04T01:09:15;15.88;;;8.35;;
60068;SDS011;45945;53.350;55.922;2023-06-04T01:10:16;12.68;;;7.72;;
60068;SDS011;45945;53.350;55.922;2023-06-04T01:11:17;12.38;;;8.57;;
60068;SDS011;45945;53.350;55.922;2023-06-04T01:12:18;12.20;;;7.90;;
60068;SDS011;45945;53.350;55.922;2023-06-04T01:13:19;12.75;;;8.25;;
60068;SDS011;45945;53.350;55.922;2023-06-04T01:14:20;14.00;;;8.38;;
60068;SDS011;45945;53.350;55.922;2023-06-04T01:15:21;14.20;;;8.88;;
60068;SDS011;45945;53.350;55.922;2023-06-04T01:16:23;13.55;;;8.25;;
60068;SDS011;45945;53.350;55.922;2023-06-04T01:18:37;13.43;;;8.88;;
60068;SDS011;45945;53.350;55.922;2023-06-04T01:20:42;14.63;;;8.38;;
60068;SDS011;45945;53.350;55.922;2023-06-04T01:21:44;11.05;;;7.82;;
60068;SDS011;45945;53.350;55.922;2023-06-04T01:22:52;14.70;;;8.68;;
60068;SDS011;45945;53.350;55.922;2023-06-04T01:24:00;9.65;;;7.65;;
60068;SDS011;45945;53.350;55.922;2023-06-04T01:25:03;13.23;;;7.90;;
60068;SDS011;45945;53.350;55.922;2023-06-04T01:26:05;12.13;;;6.90;;
60068;SDS011;45945;53.350;55.922;2023-06-04T01:27:06;10.23;;;8.23;;
60068;SDS011;45945;53.350;55.922;2023-06-04T01:28:08;13.35;;;8.63;;
60068;SDS011;45945;53.350;55.922;2023-06-04T01:29:12;12.13;;;8.02;;
60068;SDS011;45945;53.350;55.922;2023-06-04T01:30:13;15.35;;;8.30;;
60068;SDS011;45945;53.350;55.922;2023-06-04T01:31:14;11.93;;;8.07;;
60068;SDS011;45945;53.350;55.922;2023-06-04T01:32:18;11.73;;;8.43;;
60068;SDS011;45945;53.350;55.922;2023-06-04T01:33:19;11.35;;;7.88;;
60068;SDS011;45945;53.350;55.922;2023-06-04T01:34:21;12.20;;;7.90;;
60068;SDS011;45945;53.350;55.922;2023-06-04T01:35:22;13.57;;;9.07;;
60068;SDS011;45945;53.350;55.922;2023-06-04T01:36:23;13.77;;;8.25;;
60068;SDS011;45945;53.350;55.922;2023-06-04T01:37:24;11.10;;;7.60;;
60068;SDS011;45945;53.350;55.922;2023-06-04T01:38:27;11.50;;;8.32;;
60068;SDS011;45945;53.350;55.922;2023-06-04T01:39:28;15.43;;;8.10;;
60068;SDS011;45945;53.350;55.922;2023-06-04T01:40:29;11.65;;;7.53;;
60068;SDS011;45945;53.350;55.922;2023-06-04T01:41:30;10.25;;;8.07;;
60068;SDS011;45945;53.350;55.922;2023-06-04T01:42:31;10.40;;;7.60;;
60068;SDS011;45945;53.350;55.922;2023-06-04T01:43:31;12.32;;;8.13;;
60068;SDS011;45945;53.350;55.922;2023-06-04T01:44:35;13.13;;;8.35;;
60068;SDS011;45945;53.350;55.922;2023-06-04T01:45:36;15.20;;;8.13;;
60068;SDS011;45945;53.350;55.922;2023-06-04T01:46:37;11.75;;;8.25;;
60068;SDS011;45945;53.350;55.922;2023-06-04T01:47:38;13.90;;;7.57;;
60068;SDS011;45945;53.350;55.922;2023-06-04T01:48:39;12.13;;;7.90;;
60068;SDS011;45945;53.350;55.922;2023-06-04T01:49:41;10.18;;;6.85;;
60068;SDS011;45945;53.350;55.922;2023-06-04T01:50:42;12.35;;;7.72;;
60068;SDS011;45945;53.350;55.922;2023-06-04T01:51:43;10.38;;;7.97;;
60068;SDS011;45945;53.350;55.922;2023-06-04T01:52:44;12.52;;;7.93;;
60068;SDS011;45945;53.350;55.922;2023-06-04T01:53:45;10.95;;;7.65;;
60068;SDS011;45945;53.350;55.922;2023-06-04T01:54:46;10.85;;;7.55;;
60068;SDS011;45945;53.350;55.922;2023-06-04T01:55:49;11.73;;;7.88;;
60068;SDS011;45945;53.350;55.922;2023-06-04T01:56:50;11.05;;;7.88;;
60068;SDS011;45945;53.350;55.922;2023-06-04T01:57:51;11.95;;;8.25;;
60068;SDS011;45945;53.350;55.922;2023-06-04T01:58:52;13.48;;;8.43;;
60068;SDS011;45945;53.350;55.922;2023-06-04T01:59:53;12.35;;;8.15;;
60068;SDS011;45945;53.350;55.922;2023-06-04T02:00:54;11.23;;;7.88;;
60068;SDS011;45945;53.350;55.922;2023-06-04T02:02:00;13.68;;;8.27;;
60068;SDS011;45945;53.350;55.922;2023-06-04T02:03:03;9.68;;;7.80;;
60068;SDS011;45945;53.350;55.922;2023-06-04T02:04:03;11.18;;;7.78;;
60068;SDS011;45945;53.350;55.922;2023-06-04T02:05:05;13.00;;;8.05;;
60068;SDS011;45945;53.350;55.922;2023-06-04T02:06:09;12.73;;;8.30;;
60068;SDS011;45945;53.350;55.922;2023-06-04T02:07:10;11.88;;;7.85;;
60068;SDS011;45945;53.350;55.922;2023-06-04T02:08:12;11.55;;;8.05;;
60068;SDS011;45945;53.350;55.922;2023-06-04T02:09:12;12.10;;;8.23;;
60068;SDS011;45945;53.350;55.922;2023-06-04T02:10:15;13.43;;;8.38;;
60068;SDS011;45945;53.350;55.922;2023-06-04T02:11:20;9.80;;;7.32;;
60068;SDS011;45945;53.350;55.922;2023-06-04T02:12:21;12.55;;;8.00;;
60068;SDS011;45945;53.350;55.922;2023-06-04T02:13:22;12.13;;;7.80;;
60068;SDS011;45945;53.350;55.922;2023-06-04T02:14:23;10.30;;;7.40;;
60068;SDS011;45945;53.350;55.922;2023-06-04T02:15:25;9.82;;;7.45;;
60068;SDS011;45945;53.350;55.922;2023-06-04T02:16:26;14.88;;;7.70;;
60068;SDS011;45945;53.350;55.922;2023-06-04T02:17:27;17.33;;;8.10;;
60068;SDS011;45945;53.350;55.922;2023-06-04T02:18:28;13.18;;;8.00;;
60068;SDS011;45945;53.350;55.922;2023-06-04T02:19:30;11.13;;;7.43;;
60068;SDS011;45945;53.350;55.922;2023-06-04T02:20:34;11.98;;;7.60;;
60068;SDS011;45945;53.350;55.922;2023-06-04T02:21:35;12.02;;;7.38;;
60068;SDS011;45945;53.350;55.922;2023-06-04T02:22:36;12.45;;;7.82;;
60068;SDS011;45945;53.350;55.922;2023-06-04T02:23:37;11.88;;;8.15;;
60068;SDS011;45945;53.350;55.922;2023-06-04T02:24:38;13.23;;;7.80;;
60068;SDS011;45945;53.350;55.922;2023-06-04T02:25:39;12.77;;;8.48;;
60068;SDS011;45945;53.350;55.922;2023-06-04T02:26:40;11.35;;;7.43;;
60068;SDS011;45945;53.350;55.922;2023-06-04T02:27:41;11.60;;;7.57;;
60068;SDS011;45945;53.350;55.922;2023-06-04T02:28:42;11.85;;;8.30;;
60068;SDS011;45945;53.350;55.922;2023-06-04T02:29:43;12.10;;;8.20;;
60068;SDS011;45945;53.350;55.922;2023-06-04T02:30:45;11.35;;;7.70;;
60068;SDS011;45945;53.350;55.922;2023-06-04T02:31:48;12.85;;;7.18;;
60068;SDS011;45945;53.350;55.922;2023-06-04T02:32:49;12.43;;;7.05;;
60068;SDS011;45945;53.350;55.922;2023-06-04T02:33:51;9.70;;;7.20;;
60068;SDS011;45945;53.350;55.922;2023-06-04T02:34:52;13.07;;;7.80;;
60068;SDS011;45945;53.350;55.922;2023-06-04T02:35:52;12.90;;;7.90;;
60068;SDS011;45945;53.350;55.922;2023-06-04T02:36:54;11.60;;;7.53;;
60068;SDS011;45945;53.350;55.922;2023-06-04T02:37:55;12.05;;;7.90;;
60068;SDS011;45945;53.350;55.922;2023-06-04T02:38:59;14.63;;;7.70;;
60068;SDS011;45945;53.350;55.922;2023-06-04T02:40:01;10.35;;;7.25;;
60068;SDS011;45945;53.350;55.922;2023-06-04T02:41:05;9.40;;;7.30;;
60068;SDS011;45945;53.350;55.922;2023-06-04T02:42:06;12.85;;;7.40;;
60068;SDS011;45945;53.350;55.922;2023-06-04T02:43:07;13.75;;;7.50;;
60068;SDS011;45945;53.350;55.922;2023-06-04T02:44:08;12.77;;;7.40;;
60068;SDS011;45945;53.350;55.922;2023-06-04T02:45:10;11.70;;;7.25;;
60068;SDS011;45945;53.350;55.922;2023-06-04T02:46:10;9.30;;;6.90;;
60068;SDS011;45945;53.350;55.922;2023-06-04T02:47:11;9.95;;;6.55;;
60068;SDS011;45945;53.350;55.922;2023-06-04T02:48:12;12.77;;;7.47;;
60068;SDS011;45945;53.350;55.922;2023-06-04T02:49:13;14.10;;;6.85;;
60068;SDS011;45945;53.350;55.922;2023-06-04T02:50:14;9.98;;;6.72;;
60068;SDS011;45945;53.350;55.922;2023-06-04T02:51:18;10.32;;;6.70;;
60068;SDS011;45945;53.350;55.922;2023-06-04T02:52:19;11.45;;;7.25;;
60068;SDS011;45945;53.350;55.922;2023-06-04T02:53:22;11.77;;;6.38;;
60068;SDS011;45945;53.350;55.922;2023-06-04T02:54:24;10.93;;;6.70;;
60068;SDS011;45945;53.350;55.922;2023-06-04T02:55:25;10.77;;;6.75;;
60068;SDS011;45945;53.350;55.922;2023-06-04T02:56:26;10.90;;;6.88;;
60068;SDS011;45945;53.350;55.922;2023-06-04T02:57:27;9.88;;;6.82;;
60068;SDS011;45945;53.350;55.922;2023-06-04T02:58:28;11.55;;;7.30;;
60068;SDS011;45945;53.350;55.922;2023-06-04T02:59:29;11.05;;;6.85;;
60068;SDS011;45945;53.350;55.922;2023-06-04T03:00:30;10.70;;;7.30;;
60068;SDS011;45945;53.350;55.922;2023-06-04T03:01:31;11.68;;;7.15;;
60068;SDS011;45945;53.350;55.922;2023-06-04T03:02:32;10.70;;;7.45;;
60068;SDS011;45945;53.350;55.922;2023-06-04T03:03:33;10.52;;;6.93;;
60068;SDS011;45945;53.350;55.922;2023-06-04T03:04:34;11.63;;;7.10;;
60068;SDS011;45945;53.350;55.922;2023-06-04T03:05:36;11.13;;;7.05;;
60068;SDS011;45945;53.350;55.922;2023-06-04T03:06:40;11.02;;;6.55;;
60068;SDS011;45945;53.350;55.922;2023-06-04T03:07:45;13.15;;;6.88;;
60068;SDS011;45945;53.350;55.922;2023-06-04T03:08:50;10.50;;;6.70;;
60068;SDS011;45945;53.350;55.922;2023-06-04T03:09:52;10.57;;;7.30;;
60068;SDS011;45945;53.350;55.922;2023-06-04T03:10:52;10.73;;;6.70;;
60068;SDS011;45945;53.350;55.922;2023-06-04T03:11:53;12.15;;;6.65;;
60068;SDS011;45945;53.350;55.922;2023-06-04T03:12:54;10.95;;;6.25;;
60068;SDS011;45945;53.350;55.922;2023-06-04T03:13:55;13.45;;;7.03;;
60068;SDS011;45945;53.350;55.922;2023-06-04T03:14:56;9.18;;;6.63;;
60068;SDS011;45945;53.350;55.922;2023-06-04T03:15:58;10.13;;;6.85;;
60068;SDS011;45945;53.350;55.922;2023-06-04T03:17:01;12.32;;;6.80;;
60068;SDS011;45945;53.350;55.922;2023-06-04T03:18:11;11.18;;;6.32;;
60068;SDS011;45945;53.350;55.922;2023-06-04T03:19:12;11.90;;;6.10;;
60068;SDS011;45945;53.350;55.922;2023-06-04T03:20:13;10.07;;;6.18;;
60068;SDS011;45945;53.350;55.922;2023-06-04T03:21:14;12.02;;;6.43;;
60068;SDS011;45945;53.350;55.922;2023-06-04T03:22:15;11.07;;;6.50;;
60068;SDS011;45945;53.350;55.922;2023-06-04T03:23:15;9.25;;;6.40;;
60068;SDS011;45945;53.350;55.922;2023-06-04T03:24:17;9.52;;;6.40;;
60068;SDS011;45945;53.350;55.922;2023-06-04T03:25:18;9.57;;;6.57;;
60068;SDS011;45945;53.350;55.922;2023-06-04T03:26:20;9.90;;;6.20;;
60068;SDS011;45945;53.350;55.922;2023-06-04T03:27:21;12.10;;;6.30;;
60068;SDS011;45945;53.350;55.922;2023-06-04T03:28:22;11.90;;;6.20;;
60068;SDS011;45945;53.350;55.922;2023-06-04T03:29:23;10.40;;;6.38;;
60068;SDS011;45945;53.350;55.922;2023-06-04T03:30:24;8.48;;;6.47;;
60068;SDS011;45945;53.350;55.922;2023-06-04T03:31:37;9.70;;;6.10;;
60068;SDS011;45945;53.350;55.922;2023-06-04T03:32:37;9.32;;;5.53;;
60068;SDS011;45945;53.350;55.922;2023-06-04T03:33:39;13.18;;;6.13;;
60068;SDS011;45945;53.350;55.922;2023-06-04T03:34:39;9.18;;;5.60;;
60068;SDS011;45945;53.350;55.922;2023-06-04T03:35:41;8.38;;;5.65;;
60068;SDS011;45945;53.350;55.922;2023-06-04T03:36:42;9.38;;;5.75;;
60068;SDS011;45945;53.350;55.922;2023-06-04T03:37:44;11.50;;;5.72;;
60068;SDS011;45945;53.350;55.922;2023-06-04T03:38:45;12.60;;;6.30;;
60068;SDS011;45945;53.350;55.922;2023-06-04T03:39:46;8.50;;;5.85;;
60068;SDS011;45945;53.350;55.922;2023-06-04T03:40:50;9.93;;;6.10;;
60068;SDS011;45945;53.350;55.922;2023-06-04T03:41:52;9.32;;;5.72;;
60068;SDS011;45945;53.350;55.922;2023-06-04T03:42:56;11.05;;;6.00;;
60068;SDS011;45945;53.350;55.922;2023-06-04T03:44:01;8.98;;;6.05;;
60068;SDS011;45945;53.350;55.922;2023-06-04T03:45:02;9.80;;;5.72;;
60068;SDS011;45945;53.350;55.922;2023-06-04T03:46:04;11.10;;;5.53;;
60068;SDS011;45945;53.350;55.922;2023-06-04T03:47:05;10.20;;;5.78;;
60068;SDS011;45945;53.350;55.922;2023-06-04T03:48:07;8.60;;;5.95;;
60068;SDS011;45945;53.350;55.922;2023-06-04T03:49:09;10.50;;;6.18;;
60068;SDS011;45945;53.350;55.922;2023-06-04T03:50:11;7.35;;;5.18;;
60068;SDS011;45945;53.350;55.922;2023-06-04T03:51:12;9.35;;;5.63;;
60068;SDS011;45945;53.350;55.922;2023-06-04T03:52:13;7.75;;;5.13;;
60068;SDS011;45945;53.350;55.922;2023-06-04T03:53:15;8.60;;;5.53;;
60068;SDS011;45945;53.350;55.922;2023-06-04T03:54:16;10.18;;;5.70;;
60068;SDS011;45945;53.350;55.922;2023-06-04T03:55:18;9.55;;;5.30;;
60068;SDS011;45945;53.350;55.922;2023-06-04T03:56:21;11.88;;;5.60;;
60068;SDS011;45945;53.350;55.922;2023-06-04T03:57:22;8.35;;;5.28;;
60068;SDS011;45945;53.350;55.922;2023-06-04T03:58:23;8.38;;;5.03;;
60068;SDS011;45945;53.350;55.922;2023-06-04T03:59:25;10.75;;;5.15;;
60068;SDS011;45945;53.350;55.922;2023-06-04T04:00:30;8.40;;;5.30;;
60068;SDS011;45945;53.350;55.922;2023-06-04T04:01:37;9.32;;;5.38;;
60068;SDS011;45945;53.350;55.922;2023-06-04T04:02:41;9.93;;;5.47;;
60068;SDS011;45945;53.350;55.922;2023-06-04T04:03:45;8.65;;;5.20;;
60068;SDS011;45945;53.350;55.922;2023-06-04T04:04:51;8.90;;;5.03;;
60068;SDS011;45945;53.350;55.922;2023-06-04T04:05:54;9.43;;;5.32;;
60068;SDS011;45945;53.350;55.922;2023-06-04T04:06:55;7.95;;;5.47;;
60068;SDS011;45945;53.350;55.922;2023-06-04T04:07:56;10.27;;;5.78;;
60068;SDS011;45945;53.350;55.922;2023-06-04T04:09:00;8.57;;;5.72;;
60068;SDS011;45945;53.350;55.922;2023-06-04T04:10:01;9.20;;;5.57;;
60068;SDS011;45945;53.350;55.922;2023-06-04T04:11:02;11.07;;;5.85;;
60068;SDS011;45945;53.350;55.922;2023-06-04T04:12:03;9.25;;;5.35;;
60068;SDS011;45945;53.350;55.922;2023-06-04T04:13:05;8.35;;;5.78;;
60068;SDS011;45945;53.350;55.922;2023-06-04T04:14:09;9.80;;;5.50;;
60068;SDS011;45945;53.350;55.922;2023-06-04T04:15:10;9.77;;;5.45;;
60068;SDS011;45945;53.350;55.922;2023-06-04T04:16:11;12.00;;;5.55;;
60068;SDS011;45945;53.350;55.922;2023-06-04T04:17:13;10.27;;;5.68;;
60068;SDS011;45945;53.350;55.922;2023-06-04T04:18:16;8.80;;;5.63;;
60068;SDS011;45945;53.350;55.922;2023-06-04T04:19:17;12.02;;;5.95;;
60068;SDS011;45945;53.350;55.922;2023-06-04T04:20:18;9.02;;;5.57;;
60068;SDS011;45945;53.350;55.922;2023-06-04T04:21:30;9.90;;;6.38;;
60068;SDS011;45945;53.350;55.922;2023-06-04T04:22:32;8.85;;;5.63;;
60068;SDS011;45945;53.350;55.922;2023-06-04T04:23:34;8.80;;;5.53;;
60068;SDS011;45945;53.350;55.922;2023-06-04T04:24:35;10.70;;;6.03;;
60068;SDS011;45945;53.350;55.922;2023-06-04T04:25:37;8.77;;;5.53;;
60068;SDS011;45945;53.350;55.922;2023-06-04T04:26:40;8.23;;;5.82;;
60068;SDS011;45945;53.350;55.922;2023-06-04T04:27:43;8.65;;;6.05;;
60068;SDS011;45945;53.350;55.922;2023-06-04T04:28:46;11.02;;;5.97;;
60068;SDS011;45945;53.350;55.922;2023-06-04T04:29:47;10.27;;;5.70;;
60068;SDS011;45945;53.350;55.922;2023-06-04T04:30:49;12.38;;;6.07;;
60068;SDS011;45945;53.350;55.922;2023-06-04T04:31:50;10.25;;;6.15;;
60068;SDS011;45945;53.350;55.922;2023-06-04T04:32:54;8.55;;;5.57;;
60068;SDS011;45945;53.350;55.922;2023-06-04T04:34:01;8.65;;;6.18;;
60068;SDS011;45945;53.350;55.922;2023-06-04T04:35:09;7.90;;;5.30;;
60068;SDS011;45945;53.350;55.922;2023-06-04T04:36:13;9.40;;;5.57;;
60068;SDS011;45945;53.350;55.922;2023-06-04T04:37:18;8.77;;;5.75;;
60068;SDS011;45945;53.350;55.922;2023-06-04T04:38:23;10.13;;;5.10;;
60068;SDS011;45945;53.350;55.922;2023-06-04T04:39:30;9.57;;;4.88;;
60068;SDS011;45945;53.350;55.922;2023-06-04T04:40:32;9.73;;;5.10;;
60068;SDS011;45945;53.350;55.922;2023-06-04T04:41:37;10.02;;;5.13;;
60068;SDS011;45945;53.350;55.922;2023-06-04T04:42:39;8.80;;;4.72;;
60068;SDS011;45945;53.350;55.922;2023-06-04T04:43:41;11.18;;;5.07;;
60068;SDS011;45945;53.350;55.922;2023-06-04T04:44:57;8.10;;;5.22;;
60068;SDS011;45945;53.350;55.922;2023-06-04T04:46:00;8.50;;;4.85;;
60068;SDS011;45945;53.350;55.922;2023-06-04T04:47:01;8.20;;;5.03;;
60068;SDS011;45945;53.350;55.922;2023-06-04T04:48:02;10.20;;;4.82;;
60068;SDS011;45945;53.350;55.922;2023-06-04T04:49:03;10.57;;;5.50;;
60068;SDS011;45945;53.350;55.922;2023-06-04T04:50:04;9.88;;;5.13;;
60068;SDS011;45945;53.350;55.922;2023-06-04T04:51:05;10.38;;;5.30;;
60068;SDS011;45945;53.350;55.922;2023-06-04T04:52:06;7.82;;;4.85;;
60068;SDS011;45945;53.350;55.922;2023-06-04T04:53:08;7.70;;;4.53;;
60068;SDS011;45945;53.350;55.922;2023-06-04T04:54:10;8.50;;;5.00;;
60068;SDS011;45945;53.350;55.922;2023-06-04T04:55:12;8.52;;;4.72;;
60068;SDS011;45945;53.350;55.922;2023-06-04T04:56:13;9.98;;;5.20;;
60068;SDS011;45945;53.350;55.922;2023-06-04T04:57:18;9.32;;;4.93;;
60068;SDS011;45945;53.350;55.922;2023-06-04T04:58:22;10.10;;;4.80;;
60068;SDS011;45945;53.350;55.922;2023-06-04T04:59:23;9.20;;;4.80;;
60068;SDS011;45945;53.350;55.922;2023-06-04T05:00:24;10.40;;;4.90;;
60068;SDS011;45945;53.350;55.922;2023-06-04T05:01:28;7.10;;;4.45;;
60068;SDS011;45945;53.350;55.922;2023-06-04T05:02:29;9.30;;;4.80;;
60068;SDS011;45945;53.350;55.922;2023-06-04T05:03:30;8.65;;;4.63;;
60068;SDS011;45945;53.350;55.922;2023-06-04T05:04:31;8.50;;;4.97;;
60068;SDS011;45945;53.350;55.922;2023-06-04T05:05:32;10.20;;;4.32;;
60068;SDS011;45945;53.350;55.922;2023-06-04T05:06:34;9.15;;;4.88;;
60068;SDS011;45945;53.350;55.922;2023-06-04T05:07:35;8.98;;;5.15;;
60068;SDS011;45945;53.350;55.922;2023-06-04T05:08:36;7.50;;;4.45;;
60068;SDS011;45945;53.350;55.922;2023-06-04T05:09:37;8.63;;;5.03;;
60068;SDS011;45945;53.350;55.922;2023-06-04T05:10:38;7.68;;;4.50;;
60068;SDS011;45945;53.350;55.922;2023-06-04T05:11:41;7.25;;;4.20;;
60068;SDS011;45945;53.350;55.922;2023-06-04T05:12:50;10.07;;;4.72;;
60068;SDS011;45945;53.350;55.922;2023-06-04T05:14:52;8.65;;;5.00;;
60068;SDS011;45945;53.350;55.922;2023-06-04T05:15:53;7.93;;;4.45;;
60068;SDS011;45945;53.350;55.922;2023-06-04T05:16:56;8.80;;;4.72;;
60068;SDS011;45945;53.350;55.922;2023-06-04T05:17:57;9.85;;;4.80;;
60068;SDS011;45945;53.350;55.922;2023-06-04T05:19:04;9.63;;;5.10;;
60068;SDS011;45945;53.350;55.922;2023-06-04T05:20:09;12.88;;;4.82;;
60068;SDS011;45945;53.350;55.922;2023-06-04T05:21:14;7.22;;;4.25;;
60068;SDS011;45945;53.350;55.922;2023-06-04T05:22:23;7.78;;;4.40;;
60068;SDS011;45945;53.350;55.922;2023-06-04T05:23:29;8.10;;;4.45;;
60068;SDS011;45945;53.350;55.922;2023-06-04T05:24:36;7.22;;;4.28;;
60068;SDS011;45945;53.350;55.922;2023-06-04T05:25:39;8.23;;;4.40;;
60068;SDS011;45945;53.350;55.922;2023-06-04T05:26:41;9.50;;;4.43;;
60068;SDS011;45945;53.350;55.922;2023-06-04T05:27:48;9.18;;;4.30;;
60068;SDS011;45945;53.350;55.922;2023-06-04T05:28:51;7.82;;;3.80;;
60068;SDS011;45945;53.350;55.922;2023-06-04T05:29:52;10.40;;;4.50;;
60068;SDS011;45945;53.350;55.922;2023-06-04T05:30:53;9.82;;;4.18;;
60068;SDS011;45945;53.350;55.922;2023-06-04T05:32:01;8.63;;;4.38;;
60068;SDS011;45945;53.350;55.922;2023-06-04T05:33:02;9.30;;;4.32;;
60068;SDS011;45945;53.350;55.922;2023-06-04T05:34:04;9.60;;;4.30;;
60068;SDS011;45945;53.350;55.922;2023-06-04T05:35:06;7.80;;;4.63;;
60068;SDS011;45945;53.350;55.922;2023-06-04T05:36:08;7.63;;;4.43;;
60068;SDS011;45945;53.350;55.922;2023-06-04T05:37:15;7.90;;;4.47;;
60068;SDS011;45945;53.350;55.922;2023-06-04T05:38:20;9.70;;;4.78;;
60068;SDS011;45945;53.350;55.922;2023-06-04T05:39:21;7.60;;;4.43;;
60068;SDS011;45945;53.350;55.922;2023-06-04T05:40:46;7.78;;;4.28;;
60068;SDS011;45945;53.350;55.922;2023-06-04T05:41:47;8.73;;;4.70;;
60068;SDS011;45945;53.350;55.922;2023-06-04T05:42:49;8.43;;;3.97;;
60068;SDS011;45945;53.350;55.922;2023-06-04T05:43:51;8.02;;;3.95;;
60068;SDS011;45945;53.350;55.922;2023-06-04T05:44:52;7.80;;;3.97;;
60068;SDS011;45945;53.350;55.922;2023-06-04T05:45:55;8.65;;;3.83;;
60068;SDS011;45945;53.350;55.922;2023-06-04T05:46:56;7.97;;;3.50;;
60068;SDS011;45945;53.350;55.922;2023-06-04T05:47:57;7.93;;;4.32;;
60068;SDS011;45945;53.350;55.922;2023-06-04T05:49:01;7.32;;;3.70;;
60068;SDS011;45945;53.350;55.922;2023-06-04T05:50:02;7.07;;;3.78;;
60068;SDS011;45945;53.350;55.922;2023-06-04T05:51:07;9.05;;;4.07;;
60068;SDS011;45945;53.350;55.922;2023-06-04T05:52:08;8.18;;;4.13;;
60068;SDS011;45945;53.350;55.922;2023-06-04T05:53:09;11.30;;;4.20;;
60068;SDS011;45945;53.350;55.922;2023-06-04T05:54:10;7.05;;;3.70;;
60068;SDS011;45945;53.350;55.922;2023-06-04T05:55:31;7.40;;;3.97;;
60068;SDS011;45945;53.350;55.922;2023-06-04T05:56:32;9.18;;;4.63;;
60068;SDS011;45945;53.350;55.922;2023-06-04T05:57:34;9.27;;;4.43;;
60068;SDS011;45945;53.350;55.922;2023-06-04T05:58:35;9.32;;;4.00;;
60068;SDS011;45945;53.350;55.922;2023-06-04T05:59:38;7.93;;;4.07;;
60068;SDS011;45945;53.350;55.922;2023-06-04T06:00:42;8.00;;;3.97;;
60068;SDS011;45945;53.350;55.922;2023-06-04T06:01:45;7.47;;;3.72;;
60068;SDS011;45945;53.350;55.922;2023-06-04T06:02:47;8.90;;;3.83;;
60068;SDS011;45945;53.350;55.922;2023-06-04T06:04:04;6.60;;;3.33;;
60068;SDS011;45945;53.350;55.922;2023-06-04T06:05:06;7.90;;;3.60;;
60068;SDS011;45945;53.350;55.922;2023-06-04T06:06:10;8.02;;;3.70;;
60068;SDS011;45945;53.350;55.922;2023-06-04T06:07:14;8.07;;;3.97;;
60068;SDS011;45945;53.350;55.922;2023-06-04T06:08:15;7.28;;;3.33;;
60068;SDS011;45945;53.350;55.922;2023-06-04T06:09:16;6.75;;;3.72;;
60068;SDS011;45945;53.350;55.922;2023-06-04T06:10:17;8.48;;;3.30;;